createdAt,value
2023-04-06T00:18:39.542Z,98459.50
2023-04-06T00:38:42.274Z,98453.28
2023-04-06T00:58:44.956Z,98440.59
2023-04-06T01:18:47.892Z,98435.97
2023-04-06T01:38:50.796Z,98436.44
2023-04-06T01:58:53.720Z,98434.44
2023-04-06T02:18:56.477Z,98429.16
2023-04-06T02:38:59.666Z,98413.25
2023-04-06T02:59:02.358Z,98417.47
2023-04-06T03:19:05.233Z,98420.00
2023-04-06T03:39:08.648Z,98429.28
2023-04-06T03:59:11.902Z,98427.12
2023-04-06T04:19:17.381Z,98441.06
2023-04-06T04:39:20.230Z,98438.37
2023-04-06T04:59:22.912Z,98428.53
2023-04-06T05:19:25.834Z,98431.81
2023-04-06T05:39:29.904Z,98424.19
2023-04-06T05:59:32.596Z,98424.31
2023-04-06T06:19:35.718Z,98412.53
2023-04-06T06:39:38.648Z,98417.34
2023-04-06T06:59:41.710Z,98420.47
2023-04-06T07:19:44.805Z,98414.22
2023-04-06T07:39:47.957Z,98414.13
2023-04-06T07:59:51.016Z,98410.13
2023-04-06T08:19:53.783Z,98417.47
2023-04-06T08:39:56.821Z,98417.59
2023-04-06T08:59:59.609Z,98413.94
2023-04-06T09:20:02.502Z,98405.56
2023-04-06T09:40:05.560Z,98389.44
2023-04-06T10:00:15.128Z,98373.56
2023-04-06T10:20:18.162Z,98350.81
2023-04-06T10:40:21.109Z,98338.06
2023-04-06T11:00:23.939Z,98317.75
2023-04-06T11:20:26.928Z,98313.12
2023-04-06T11:40:32.978Z,98295.00
2023-04-06T12:00:37.118Z,98301.16
2023-04-06T12:20:40.617Z,98298.09
2023-04-06T12:40:45.481Z,98279.81
2023-04-06T13:00:48.418Z,98286.44
2023-04-06T13:20:51.376Z,98263.09
2023-04-06T13:40:54.155Z,98268.31
2023-04-06T14:00:56.984Z,98236.47
2023-04-06T14:21:00.408Z,98221.88
2023-04-06T14:41:03.197Z,98215.28
2023-04-06T15:01:06.113Z,98222.97
2023-04-06T15:21:09.485Z,98208.63
2023-04-06T15:41:14.968Z,98214.31
2023-04-06T16:01:17.822Z,98213.00
2023-04-06T16:21:20.863Z,98232.59
2023-04-06T16:41:23.736Z,98236.03
2023-04-06T17:01:33.627Z,98249.44
2023-04-06T17:21:36.341Z,98244.31
2023-04-06T17:41:40.205Z,98242.84
2023-04-06T18:01:44.185Z,98250.09
2023-04-06T18:21:46.906Z,98231.44
2023-04-06T18:41:49.586Z,98226.41
2023-04-06T19:01:55.232Z,98223.88
2023-04-06T19:21:58.887Z,98222.03
2023-04-06T19:42:02.177Z,98197.22
2023-04-06T20:02:05.104Z,98186.34
2023-04-06T20:22:08.563Z,98182.25
2023-04-06T20:42:11.972Z,98182.25
2023-04-06T21:02:14.742Z,98160.25
2023-04-06T22:23:27.951Z,98113.69
